createdAt,value
2023-04-21T00:01:10.567Z,79.78
2023-04-21T00:06:13.215Z,79.45
2023-04-21T00:11:15.475Z,79.98
2023-04-21T00:16:17.641Z,79.45
2023-04-21T00:21:20.301Z,79.55
2023-04-21T00:26:22.722Z,79.80
2023-04-21T00:31:25.417Z,79.94
2023-04-21T00:36:28.604Z,80.00
2023-04-21T00:41:31.257Z,80.04
2023-04-21T00:46:34.549Z,80.01
2023-04-21T00:51:37.687Z,80.20
2023-04-21T00:56:40.189Z,80.33
2023-04-21T01:01:42.809Z,80.07
2023-04-21T01:06:45.521Z,80.55
2023-04-21T01:12:08.366Z,80.77
2023-04-21T01:17:10.689Z,80.96
2023-04-21T01:22:13.776Z,80.87
2023-04-21T01:27:22.135Z,81.13
2023-04-21T01:32:30.470Z,81.16
2023-04-21T01:37:34.592Z,80.83
2023-04-21T01:42:40.620Z,80.70
2023-04-21T01:47:43.273Z,81.46
2023-04-21T01:52:45.640Z,81.47
2023-04-21T01:57:51.134Z,81.48
2023-04-21T02:02:53.902Z,82.00
2023-04-21T02:07:55.989Z,82.01
2023-04-21T02:12:58.235Z,82.25
2023-04-21T02:18:00.909Z,81.89
2023-04-21T02:23:03.467Z,82.23
2023-04-21T02:28:05.652Z,82.17
2023-04-21T02:33:07.862Z,82.40
2023-04-21T02:38:13.061Z,82.72
2023-04-21T02:43:17.985Z,82.73
2023-04-21T02:48:23.142Z,82.46
2023-04-21T02:53:26.530Z,82.51
2023-04-21T02:58:28.627Z,82.27
2023-04-21T03:03:31.998Z,82.53
2023-04-21T03:08:34.445Z,82.70
2023-04-21T03:13:36.495Z,82.49
2023-04-21T03:18:38.405Z,82.46
2023-04-21T03:23:41.264Z,82.65
2023-04-21T03:28:43.369Z,82.69
2023-04-21T03:33:45.763Z,82.56
2023-04-21T03:38:47.727Z,82.55
2023-04-21T03:43:52.388Z,82.91
2023-04-21T03:48:54.505Z,83.05
2023-04-21T03:53:56.544Z,82.97
2023-04-21T03:58:58.909Z,83.11
2023-04-21T04:04:01.186Z,83.31
2023-04-21T04:09:05.124Z,83.34
2023-04-21T04:14:07.237Z,83.38
2023-04-21T04:19:09.378Z,83.37
2023-04-21T04:24:12.379Z,83.70
2023-04-21T04:29:16.243Z,83.55
2023-04-21T04:34:19.242Z,83.91
2023-04-21T04:39:22.332Z,83.72
2023-04-21T04:44:26.010Z,83.87
2023-04-21T04:49:27.952Z,83.79
2023-04-21T04:54:30.068Z,83.89
2023-04-21T04:59:32.973Z,83.80
2023-04-21T05:04:35.380Z,83.39
2023-04-21T05:09:37.361Z,83.53
2023-04-21T05:14:39.484Z,83.13
2023-04-21T05:19:41.409Z,83.09
2023-04-21T05:24:44.818Z,82.61
2023-04-21T05:29:46.811Z,82.69
2023-04-21T05:34:48.772Z,82.65
2023-04-21T05:39:51.685Z,82.55
2023-04-21T05:44:54.706Z,82.38
2023-04-21T05:49:56.612Z,82.24
2023-04-21T05:55:02.268Z,82.24
2023-04-21T06:00:05.411Z,82.09
2023-04-21T06:05:08.011Z,81.61
2023-04-21T06:10:11.882Z,81.06
2023-04-21T06:15:13.881Z,80.27
2023-04-21T06:20:17.735Z,79.53
2023-04-21T06:25:20.043Z,79.43
2023-04-21T06:30:22.949Z,79.10
2023-04-21T06:35:25.062Z,78.53
2023-04-21T06:40:26.911Z,78.54
2023-04-21T06:45:29.166Z,78.01
2023-04-21T06:50:31.787Z,77.56
2023-04-21T06:55:34.340Z,77.24
2023-04-21T07:00:36.403Z,76.94
2023-04-21T07:05:38.804Z,77.03
2023-04-21T07:10:41.078Z,76.90
2023-04-21T07:15:43.224Z,76.47
2023-04-21T07:20:45.500Z,76.29
2023-04-21T07:25:48.280Z,75.92
2023-04-21T07:30:50.586Z,75.66
2023-04-21T07:35:52.786Z,75.03
2023-04-21T07:40:54.982Z,74.00
2023-04-21T07:45:58.407Z,73.49
2023-04-21T07:51:00.565Z,72.71
2023-04-21T07:56:02.904Z,72.08
2023-04-21T08:01:05.110Z,71.99
2023-04-21T08:06:08.253Z,71.47
2023-04-21T08:11:11.011Z,70.85
2023-04-21T08:16:13.764Z,70.39
2023-04-21T08:21:15.723Z,69.79
2023-04-21T08:26:22.156Z,68.78
2023-04-21T08:31:24.135Z,68.41
2023-04-21T08:36:29.851Z,67.92
2023-04-21T08:41:32.164Z,67.57
2023-04-21T08:46:36.356Z,67.17
2023-04-21T08:51:38.362Z,66.78
2023-04-21T08:56:40.916Z,66.08
2023-04-21T09:02:06.868Z,64.78
2023-04-21T09:07:09.729Z,63.27
2023-04-21T09:12:11.629Z,61.96
2023-04-21T09:17:16.558Z,60.89
2023-04-21T09:22:19.130Z,60.14
2023-04-21T09:27:21.885Z,58.16
2023-04-21T09:32:23.867Z,56.53
2023-04-21T09:37:26.025Z,56.37
2023-04-21T09:42:32.114Z,55.01
2023-04-21T09:47:48.588Z,53.83
2023-04-21T09:52:52.679Z,52.81
2023-04-21T09:58:02.738Z,52.11
2023-04-21T10:03:05.966Z,52.50
2023-04-21T10:08:11.304Z,51.61
2023-04-21T10:13:16.646Z,50.92
2023-04-21T10:18:22.676Z,49.90
2023-04-21T10:23:33.900Z,49.24
2023-04-21T10:28:43.801Z,48.80
2023-04-21T10:34:13.799Z,49.29
2023-04-21T10:39:38.709Z,48.76
2023-04-21T10:44:44.332Z,48.00
2023-04-21T10:49:50.031Z,48.00
2023-04-21T10:54:54.823Z,47.65
2023-04-21T10:59:57.197Z,47.17
2023-04-21T11:05:01.574Z,48.35
2023-04-21T11:10:08.700Z,47.51
2023-04-21T11:15:13.592Z,46.82
2023-04-21T11:20:15.881Z,44.73
2023-04-21T11:25:18.839Z,43.76
2023-04-21T11:30:21.503Z,44.58
2023-04-21T11:35:23.497Z,45.41
2023-04-21T11:40:25.669Z,45.70
2023-04-21T11:45:29.137Z,45.91
2023-04-21T11:50:32.525Z,46.47
2023-04-21T11:55:34.864Z,46.53
2023-04-21T12:00:37.144Z,45.37
2023-04-21T12:05:39.455Z,45.54
2023-04-21T12:10:47.060Z,45.33
2023-04-21T12:15:49.263Z,44.79
2023-04-21T12:20:52.668Z,44.90
2023-04-21T12:25:54.488Z,44.24
2023-04-21T12:30:56.746Z,43.51
2023-04-21T12:35:59.883Z,44.35
2023-04-21T12:41:02.030Z,44.35
2023-04-21T12:46:04.037Z,44.04
2023-04-21T12:51:06.181Z,43.45
2023-04-21T12:56:08.194Z,43.97
2023-04-21T13:01:12.245Z,44.05
2023-04-21T13:06:14.263Z,44.07
2023-04-21T13:11:16.219Z,44.22
2023-04-21T13:16:18.152Z,43.98
2023-04-21T13:21:20.340Z,43.51
2023-04-21T13:26:22.159Z,42.71
2023-04-21T13:31:24.697Z,41.83
2023-04-21T13:36:26.973Z,42.47
2023-04-21T13:41:29.113Z,42.57
2023-04-21T13:46:31.103Z,43.54
2023-04-21T13:51:33.220Z,44.08
2023-04-21T13:56:35.061Z,43.74
2023-04-21T14:01:37.788Z,43.81
2023-04-21T14:06:39.945Z,43.94
2023-04-21T14:11:42.366Z,43.44
2023-04-21T14:16:44.395Z,43.33
2023-04-21T14:21:46.502Z,43.33
2023-04-21T14:26:48.528Z,42.95
2023-04-21T14:31:51.560Z,42.99
2023-04-21T14:36:54.036Z,43.27
2023-04-21T14:41:57.009Z,43.21
2023-04-21T14:47:09.281Z,43.01
2023-04-21T14:52:13.165Z,43.45
2023-04-21T14:57:19.834Z,42.84
2023-04-21T15:02:23.038Z,43.22
2023-04-21T15:07:25.323Z,43.24
2023-04-21T15:12:27.519Z,42.67
2023-04-21T15:17:30.683Z,42.97
2023-04-21T15:22:34.606Z,43.02
2023-04-21T15:27:36.968Z,43.22
2023-04-21T15:32:41.192Z,43.07
2023-04-21T15:37:45.812Z,42.97
2023-04-21T15:42:51.688Z,42.83
2023-04-21T15:47:53.856Z,43.18
2023-04-21T15:52:56.101Z,43.97
2023-04-21T15:57:58.232Z,44.58
2023-04-21T16:03:01.943Z,44.32
2023-04-21T16:08:04.757Z,44.77
2023-04-21T16:13:08.021Z,45.38
2023-04-21T16:18:10.009Z,45.42
2023-04-21T16:23:13.162Z,45.40
2023-04-21T16:28:15.472Z,44.42
2023-04-21T16:33:18.418Z,44.07
2023-04-21T16:38:20.403Z,43.96
2023-04-21T16:43:23.600Z,43.83
2023-04-21T16:48:25.665Z,44.03
2023-04-21T16:53:27.905Z,44.46
2023-04-21T16:58:30.238Z,45.24
2023-04-21T17:03:32.623Z,45.63
2023-04-21T17:08:34.971Z,45.93
2023-04-21T17:13:39.295Z,46.16
2023-04-21T17:18:41.603Z,46.56
2023-04-21T17:23:43.686Z,46.55
2023-04-21T17:28:46.147Z,46.54
2023-04-21T17:33:48.668Z,46.72
2023-04-21T17:38:51.082Z,47.25
2023-04-21T17:43:57.428Z,47.26
2023-04-21T17:48:59.394Z,47.42
2023-04-21T17:54:03.348Z,47.38
2023-04-21T17:59:05.526Z,47.39
2023-04-21T18:04:09.448Z,48.15
2023-04-21T18:09:12.164Z,48.19
2023-04-21T18:14:14.186Z,48.32
2023-04-21T18:19:17.361Z,48.77
2023-04-21T18:24:19.479Z,48.91
2023-04-21T18:29:21.689Z,49.23
2023-04-21T18:34:24.216Z,49.36
2023-04-21T18:39:26.166Z,49.62
2023-04-21T18:44:30.181Z,49.64
2023-04-21T18:49:32.579Z,49.70
2023-04-21T18:54:35.476Z,49.87
2023-04-21T18:59:38.781Z,50.09
2023-04-21T19:04:44.053Z,50.25
2023-04-21T19:09:46.436Z,50.52
2023-04-21T19:14:49.484Z,50.67
2023-04-21T19:19:51.798Z,50.73
2023-04-21T19:24:56.122Z,50.87
2023-04-21T19:29:58.815Z,52.03
2023-04-21T19:35:06.032Z,52.55
2023-04-21T19:40:09.131Z,52.62
2023-04-21T19:45:12.331Z,52.66
2023-04-21T19:50:14.635Z,53.07
2023-04-21T19:55:17.280Z,53.18
2023-04-21T20:00:19.460Z,53.33
2023-04-21T20:05:22.007Z,53.47
2023-04-21T20:10:23.997Z,53.59
2023-04-21T20:15:27.028Z,53.65
2023-04-21T20:20:29.728Z,53.60
2023-04-21T20:25:32.106Z,53.64
2023-04-21T20:30:34.662Z,53.59
2023-04-21T20:35:40.704Z,53.72
2023-04-21T20:40:43.681Z,53.68
2023-04-21T20:45:47.654Z,53.90
2023-04-21T20:50:51.369Z,54.02
2023-04-21T20:55:53.668Z,54.13
2023-04-21T21:00:55.548Z,54.29
2023-04-21T21:05:57.595Z,54.62
2023-04-21T21:11:00.296Z,55.22
2023-04-21T21:16:07.819Z,54.92
2023-04-21T21:21:10.748Z,54.84
2023-04-21T21:26:12.801Z,55.39
2023-04-21T21:31:14.615Z,55.38
2023-04-21T21:36:17.441Z,55.58
2023-04-21T21:41:21.565Z,55.97
2023-04-21T21:46:43.723Z,56.39
2023-04-21T21:51:48.088Z,56.30
2023-04-21T21:56:50.489Z,56.49
2023-04-21T22:01:52.548Z,56.54
2023-04-21T22:06:54.871Z,56.86
